Manicore, Brazil
Current Conditions -  °F | °C
As of 3:00 PM on Saturday 20 Dec 2014 (Local Time) from SBMY Reporting Station
Scattered Clouds Scattered Clouds  
Wind Chill: 88°   Ceiling: Unl
Heat Index: 100°   Visibility: 6mi
Dew Point: 77°   Wind: 3mph
Humidity: 70%   Direction: 30°NNE
Pressure: 29.8"   Gusts: NA
Location:  5.82°S, 61.28°W
Report Text: SBMY 201900Z 03003KT 9999 SCT020 31/25 Q1009
Loading
Personal Weather Stations






























Interactive Weather Map New forecast layout! Learn more

10-Day Weather Forecast

Advertisements
Track Severe Weather on mobile